createdAt,value
2023-03-18T00:00:52.351Z,20.10
2023-03-18T00:03:20.489Z,20.30
2023-03-18T00:05:48.816Z,20.38
2023-03-18T00:08:16.997Z,20.36
2023-03-18T00:10:45.141Z,20.31
2023-03-18T00:13:13.496Z,20.35
2023-03-18T00:15:41.489Z,20.17
2023-03-18T00:18:10.070Z,19.96
2023-03-18T00:20:40.459Z,20.24
2023-03-18T00:23:09.036Z,19.94
2023-03-18T00:25:39.161Z,20.27
2023-03-18T00:28:07.827Z,20.23
2023-03-18T00:30:39.154Z,19.88
2023-03-18T00:33:07.486Z,20.27
2023-03-18T00:35:36.629Z,20.26
2023-03-18T00:38:07.803Z,20.26
2023-03-18T00:41:06.345Z,20.15
2023-03-18T00:43:46.295Z,20.27
2023-03-18T00:46:19.004Z,19.96
2023-03-18T00:48:47.648Z,19.96
2023-03-18T00:51:17.862Z,20.16
2023-03-18T00:53:48.277Z,19.96
2023-03-18T00:56:18.291Z,19.96
2023-03-18T00:58:47.740Z,20.28
2023-03-18T01:01:17.987Z,20.16
2023-03-18T01:03:49.719Z,19.88
2023-03-18T01:06:25.370Z,20.28
2023-03-18T01:08:54.325Z,20.04
2023-03-18T01:11:23.643Z,20.25
2023-03-18T01:13:53.244Z,20.26
2023-03-18T01:16:22.989Z,19.90
2023-03-18T01:18:51.286Z,20.16
2023-03-18T01:21:20.224Z,20.20
2023-03-18T01:23:54.673Z,20.18
2023-03-18T01:26:24.444Z,20.17
2023-03-18T01:28:53.538Z,20.09
2023-03-18T01:31:26.467Z,20.05
2023-03-18T01:33:58.601Z,19.28
2023-03-18T01:36:26.472Z,20.23
2023-03-18T01:39:08.485Z,20.07
2023-03-18T01:41:37.936Z,20.24
2023-03-18T01:44:22.516Z,20.17
2023-03-18T01:46:53.690Z,20.23
2023-03-18T01:49:31.245Z,20.25
2023-03-18T01:52:20.634Z,20.20
2023-03-18T01:55:12.911Z,20.03
2023-03-18T01:57:43.295Z,19.92
2023-03-18T02:00:12.785Z,20.16
2023-03-18T02:02:48.298Z,19.99
2023-03-18T02:05:21.296Z,20.11
2023-03-18T02:07:49.829Z,20.07
2023-03-18T02:10:30.660Z,19.87
2023-03-18T02:13:07.973Z,19.76
2023-03-18T02:16:08.160Z,20.13
2023-03-18T02:18:43.399Z,20.09
2023-03-18T02:21:31.234Z,20.08
2023-03-18T02:24:17.977Z,20.04
2023-03-18T02:26:59.873Z,19.83
2023-03-18T02:29:37.467Z,19.84
2023-03-18T02:32:13.701Z,20.06
2023-03-18T02:34:43.424Z,20.06
2023-03-18T02:37:12.093Z,20.05
2023-03-18T02:39:42.426Z,19.98
2023-03-18T02:42:14.671Z,20.04
2023-03-18T02:44:50.058Z,20.03
2023-03-18T02:47:43.117Z,19.84
2023-03-18T02:50:11.761Z,19.95
2023-03-18T02:52:39.924Z,19.62
2023-03-18T02:55:09.179Z,19.90
2023-03-18T02:57:37.298Z,19.58
2023-03-18T03:00:05.962Z,19.72
2023-03-18T03:02:34.130Z,19.42
2023-03-18T03:05:02.385Z,19.92
2023-03-18T03:07:31.478Z,19.33
2023-03-18T03:10:03.595Z,19.95
2023-03-18T03:12:31.759Z,19.92
2023-03-18T03:15:01.273Z,19.81
2023-03-18T03:17:32.089Z,19.90
2023-03-18T03:20:00.417Z,19.87
2023-03-18T03:22:30.401Z,19.89
2023-03-18T03:24:58.752Z,19.90
2023-03-18T03:27:26.570Z,19.71
2023-03-18T03:29:55.925Z,19.57
2023-03-18T03:32:24.283Z,19.72
2023-03-18T03:34:52.438Z,19.74
2023-03-18T03:37:20.238Z,19.84
2023-03-18T03:39:49.245Z,19.76
2023-03-18T03:42:17.066Z,19.83
2023-03-18T03:44:46.683Z,19.58
2023-03-18T03:47:16.466Z,19.66
2023-03-18T03:49:44.209Z,19.63
2023-03-18T03:52:13.103Z,19.87
2023-03-18T03:54:42.816Z,19.59
2023-03-18T03:57:11.521Z,19.78
2023-03-18T03:59:39.525Z,19.78
2023-03-18T04:02:30.714Z,19.80
2023-03-18T04:05:02.772Z,19.66
2023-03-18T04:07:31.881Z,19.28
2023-03-18T04:09:59.627Z,19.41
2023-03-18T04:12:27.297Z,19.84
2023-03-18T04:15:00.859Z,19.73
2023-03-18T04:17:28.930Z,19.57
2023-03-18T04:19:57.085Z,19.40
2023-03-18T04:22:33.722Z,19.75
2023-03-18T04:25:11.427Z,19.88
2023-03-18T04:27:41.795Z,19.89
2023-03-18T04:30:15.617Z,19.87
2023-03-18T04:32:55.483Z,19.76
2023-03-18T04:35:23.895Z,19.82
2023-03-18T04:37:52.672Z,19.84
2023-03-18T04:40:21.392Z,19.78
2023-03-18T04:42:49.477Z,19.82
2023-03-18T04:45:23.067Z,19.75
2023-03-18T04:47:51.452Z,19.63
2023-03-18T04:50:19.578Z,19.75
2023-03-18T04:52:48.532Z,18.92
2023-03-18T04:55:20.745Z,19.74
2023-03-18T04:57:48.893Z,19.44
2023-03-18T05:00:23.920Z,19.63
2023-03-18T05:02:59.826Z,19.70
2023-03-18T05:05:28.145Z,19.62
2023-03-18T05:07:57.025Z,19.69
2023-03-18T05:10:25.246Z,19.74
2023-03-18T05:12:53.013Z,19.74
2023-03-18T05:15:28.862Z,19.75
2023-03-18T05:17:59.777Z,19.28
2023-03-18T05:20:29.056Z,19.66
2023-03-18T05:22:57.379Z,19.65
2023-03-18T05:25:51.895Z,19.44
2023-03-18T05:28:22.051Z,19.48
2023-03-18T05:31:10.293Z,19.61
2023-03-18T05:33:53.347Z,19.53
2023-03-18T05:36:22.552Z,19.73
2023-03-18T05:38:59.531Z,19.22
2023-03-18T05:41:27.802Z,19.70
2023-03-18T05:43:55.644Z,19.69
2023-03-18T05:46:23.933Z,19.57
2023-03-18T05:49:15.122Z,19.45
2023-03-18T05:52:04.574Z,19.70
2023-03-18T05:54:41.966Z,19.28
2023-03-18T05:57:13.402Z,19.69
2023-03-18T05:59:41.515Z,19.32
2023-03-18T06:02:11.935Z,18.61
2023-03-18T06:04:40.446Z,19.50
2023-03-18T06:07:08.554Z,19.50
2023-03-18T06:09:37.080Z,19.51
2023-03-18T06:12:06.483Z,19.59
2023-03-18T06:14:34.279Z,19.39
2023-03-18T06:17:04.724Z,19.53
2023-03-18T06:19:32.550Z,19.15
2023-03-18T06:22:00.473Z,19.53
2023-03-18T06:24:28.857Z,19.55
2023-03-18T06:26:57.915Z,19.57
2023-03-18T06:29:26.862Z,19.22
2023-03-18T06:31:58.752Z,19.65
2023-03-18T06:34:27.772Z,19.70
2023-03-18T06:36:57.153Z,19.38
2023-03-18T06:39:25.403Z,19.49
2023-03-18T06:41:55.074Z,19.47
2023-03-18T06:44:53.347Z,19.76
2023-03-18T06:47:28.629Z,19.64
2023-03-18T06:49:58.497Z,19.82
2023-03-18T06:52:38.581Z,19.81
2023-03-18T06:55:11.977Z,19.61
2023-03-18T06:57:43.505Z,19.82
2023-03-18T07:00:12.937Z,19.78
2023-03-18T07:02:43.526Z,19.73
2023-03-18T07:05:14.904Z,19.83
2023-03-18T07:07:44.273Z,19.64
2023-03-18T07:10:22.807Z,19.54
2023-03-18T07:12:52.535Z,19.71
2023-03-18T07:15:24.883Z,19.60
2023-03-18T07:17:55.376Z,18.96
2023-03-18T07:20:24.398Z,19.87
2023-03-18T07:22:52.726Z,19.87
2023-03-18T07:25:22.531Z,19.76
2023-03-18T07:27:52.297Z,19.72
2023-03-18T07:30:20.320Z,19.91
2023-03-18T07:32:48.338Z,19.75
2023-03-18T07:35:16.352Z,19.76
2023-03-18T07:37:44.300Z,19.76
2023-03-18T07:40:13.223Z,20.01
2023-03-18T07:42:42.450Z,19.82
2023-03-18T07:45:10.769Z,20.02
2023-03-18T07:47:39.127Z,19.82
2023-03-18T07:50:08.861Z,19.97
2023-03-18T07:52:37.554Z,20.05
2023-03-18T07:55:06.275Z,20.05
2023-03-18T07:57:34.221Z,20.06
2023-03-18T08:00:02.382Z,20.05
2023-03-18T08:02:41.604Z,19.71
2023-03-18T08:05:10.156Z,20.07
2023-03-18T08:07:38.573Z,20.08
2023-03-18T08:10:07.159Z,19.92
2023-03-18T08:12:49.336Z,20.08
2023-03-18T08:15:20.766Z,20.05
2023-03-18T08:17:52.998Z,19.92
2023-03-18T08:20:21.735Z,19.89
2023-03-18T08:22:50.269Z,20.01
2023-03-18T08:25:18.480Z,20.14
2023-03-18T08:27:46.387Z,20.08
2023-03-18T08:30:15.224Z,20.16
2023-03-18T08:32:45.320Z,20.13
2023-03-18T08:35:13.671Z,19.99
2023-03-18T08:37:42.938Z,19.99
2023-03-18T08:40:11.950Z,19.96
2023-03-18T08:42:39.856Z,19.90
2023-03-18T08:45:08.501Z,20.09
2023-03-18T08:47:37.841Z,20.08
2023-03-18T08:50:06.388Z,19.70
2023-03-18T08:52:34.215Z,20.18
2023-03-18T08:55:02.503Z,20.16
2023-03-18T08:57:30.266Z,19.96
2023-03-18T08:59:58.346Z,20.15
2023-03-18T09:02:26.505Z,20.16
2023-03-18T09:04:55.966Z,20.30
2023-03-18T09:07:23.737Z,19.99
2023-03-18T09:09:52.251Z,20.22
2023-03-18T09:12:20.337Z,20.34
2023-03-18T09:14:49.339Z,20.35
2023-03-18T09:17:17.196Z,20.04
2023-03-18T09:19:45.686Z,20.38
2023-03-18T09:22:13.451Z,20.42
2023-03-18T09:24:41.870Z,20.39
2023-03-18T09:27:10.589Z,20.36
2023-03-18T09:29:38.643Z,20.49
2023-03-18T09:32:08.615Z,20.44
2023-03-18T09:34:37.861Z,20.49
2023-03-18T09:37:05.734Z,20.11
2023-03-18T09:39:33.598Z,20.23
2023-03-18T09:42:05.644Z,20.42
2023-03-18T09:44:36.087Z,20.45
2023-03-18T09:47:10.901Z,20.46
2023-03-18T09:50:15.835Z,20.48
2023-03-18T09:52:48.466Z,20.49
2023-03-18T09:55:27.771Z,20.42
2023-03-18T09:58:03.655Z,20.31
2023-03-18T10:00:38.641Z,20.50
2023-03-18T10:03:11.043Z,20.49
2023-03-18T10:05:54.640Z,20.48
2023-03-18T10:08:42.486Z,20.48
2023-03-18T10:11:35.619Z,19.82
2023-03-18T10:14:07.461Z,20.46
2023-03-18T10:16:49.143Z,20.46
2023-03-18T10:19:17.161Z,20.45
2023-03-18T10:21:54.760Z,20.45
2023-03-18T10:24:49.028Z,20.47
2023-03-18T10:27:35.150Z,20.26
2023-03-18T10:30:30.583Z,20.42
2023-03-18T10:33:15.619Z,20.49
2023-03-18T10:35:57.672Z,20.52
2023-03-18T10:38:34.380Z,20.52
2023-03-18T10:41:02.690Z,20.51
2023-03-18T10:43:33.640Z,20.54
2023-03-18T10:46:07.673Z,20.55
2023-03-18T10:48:42.560Z,20.53
2023-03-18T10:51:34.015Z,20.53
2023-03-18T10:54:10.254Z,20.53
2023-03-18T10:56:38.555Z,20.52
2023-03-18T10:59:15.441Z,20.54
2023-03-18T11:01:47.465Z,20.54
2023-03-18T11:04:19.256Z,20.51
2023-03-18T11:06:52.009Z,20.50
2023-03-18T11:09:22.769Z,20.25
2023-03-18T11:11:56.992Z,20.58
2023-03-18T11:14:32.355Z,20.65
2023-03-18T11:17:05.942Z,20.55
2023-03-18T11:19:39.778Z,20.63
2023-03-18T11:22:10.593Z,20.65
2023-03-18T11:24:39.940Z,20.49
2023-03-18T11:27:14.591Z,20.64
2023-03-18T11:29:46.796Z,20.31
2023-03-18T11:32:33.248Z,20.11
2023-03-18T11:35:03.058Z,20.36
2023-03-18T11:37:35.771Z,20.34
2023-03-18T11:40:14.544Z,20.29
2023-03-18T11:42:44.206Z,20.17
2023-03-18T11:45:50.985Z,20.32
2023-03-18T11:48:43.399Z,20.24
2023-03-18T11:51:38.178Z,20.33
2023-03-18T11:54:28.794Z,20.34
2023-03-18T11:57:23.805Z,20.30
2023-03-18T12:00:20.259Z,20.38
2023-03-18T12:03:25.943Z,20.45
2023-03-18T12:06:09.071Z,20.50
2023-03-18T12:08:51.692Z,20.12
2023-03-18T12:11:38.630Z,20.51
2023-03-18T12:14:31.702Z,20.47
2023-03-18T12:17:04.053Z,20.45
2023-03-18T12:19:42.605Z,20.25
2023-03-18T12:22:19.264Z,20.39
2023-03-18T12:25:09.263Z,20.39
2023-03-18T12:27:58.882Z,20.43
2023-03-18T12:30:45.636Z,20.51
2023-03-18T12:33:19.430Z,20.57
2023-03-18T12:36:09.297Z,20.63
2023-03-18T12:38:40.289Z,20.68
2023-03-18T12:41:14.029Z,20.72
2023-03-18T12:44:01.148Z,20.80
2023-03-18T12:47:06.834Z,20.82
2023-03-18T12:49:45.228Z,20.90
2023-03-18T12:52:23.469Z,20.93
2023-03-18T12:54:59.782Z,20.92
2023-03-18T12:57:49.348Z,20.79
2023-03-18T13:00:27.387Z,20.90
2023-03-18T13:03:09.433Z,20.90
2023-03-18T13:05:47.606Z,20.74
2023-03-18T13:08:27.868Z,20.87
2023-03-18T13:11:36.357Z,20.87
2023-03-18T13:14:39.357Z,20.60
2023-03-18T13:17:40.221Z,20.68
2023-03-18T13:20:31.987Z,20.81
2023-03-18T13:23:08.854Z,20.70
2023-03-18T13:25:57.879Z,20.74
2023-03-18T13:28:43.994Z,20.79
2023-03-18T13:31:50.649Z,20.71
2023-03-18T13:34:26.734Z,20.77
2023-03-18T13:37:27.126Z,20.71
2023-03-18T13:40:10.395Z,20.70
2023-03-18T13:42:40.178Z,20.71
2023-03-18T13:45:18.990Z,20.68
2023-03-18T13:47:46.791Z,20.66
2023-03-18T13:50:20.379Z,20.68
2023-03-18T13:52:49.708Z,20.43
2023-03-18T13:55:29.846Z,20.59
2023-03-18T13:58:23.932Z,20.68
2023-03-18T14:00:54.768Z,20.64
2023-03-18T14:03:30.761Z,20.62
2023-03-18T14:06:10.561Z,20.63
2023-03-18T14:08:47.422Z,20.63
2023-03-18T14:11:19.843Z,20.59
2023-03-18T14:13:47.749Z,20.55
2023-03-18T14:16:21.212Z,20.58
2023-03-18T14:19:19.302Z,20.42
2023-03-18T14:21:53.343Z,20.58
2023-03-18T14:24:26.189Z,20.24
2023-03-18T14:27:06.831Z,20.60
2023-03-18T14:29:47.895Z,20.59
2023-03-18T14:32:34.936Z,20.59
2023-03-18T14:35:49.482Z,20.61
2023-03-18T14:38:49.851Z,20.49
2023-03-18T14:41:30.122Z,20.31
2023-03-18T14:44:22.534Z,20.60
2023-03-18T14:46:58.520Z,20.57
2023-03-18T14:49:32.752Z,20.58
2023-03-18T14:52:06.199Z,20.59
2023-03-18T14:54:42.769Z,20.58
2023-03-18T14:57:11.245Z,20.58
2023-03-18T14:59:38.940Z,20.53
2023-03-18T15:02:15.388Z,20.32
2023-03-18T15:04:53.202Z,20.49
2023-03-18T15:07:27.442Z,20.52
2023-03-18T15:09:55.292Z,20.47
2023-03-18T15:12:28.830Z,20.24
2023-03-18T15:14:56.851Z,20.15
2023-03-18T15:17:27.651Z,20.55
2023-03-18T15:20:00.734Z,20.06
2023-03-18T15:22:33.068Z,20.54
2023-03-18T15:25:08.359Z,20.24
2023-03-18T15:27:37.077Z,20.56
2023-03-18T15:30:11.914Z,20.56
2023-03-18T15:32:50.236Z,20.46
2023-03-18T15:35:29.252Z,20.37
2023-03-18T15:38:11.205Z,20.63
2023-03-18T15:40:54.420Z,20.51
2023-03-18T15:43:43.287Z,20.68
2023-03-18T15:46:18.902Z,20.68
2023-03-18T15:48:54.944Z,20.68
2023-03-18T15:51:27.640Z,19.90
2023-03-18T15:53:59.327Z,20.50
2023-03-18T15:56:31.727Z,20.64
2023-03-18T15:59:14.780Z,20.60
2023-03-18T16:01:42.951Z,20.45
2023-03-18T16:04:17.170Z,20.63
2023-03-18T16:06:45.426Z,20.12
2023-03-18T16:09:25.361Z,20.63
2023-03-18T16:11:58.412Z,20.52
2023-03-18T16:14:33.489Z,20.65
2023-03-18T16:17:01.850Z,20.42
2023-03-18T16:19:31.219Z,20.67
2023-03-18T16:22:00.802Z,20.69
2023-03-18T16:24:28.642Z,20.72
2023-03-18T16:26:57.698Z,20.70
2023-03-18T16:29:32.022Z,20.67
2023-03-18T16:32:01.000Z,20.38
2023-03-18T16:34:28.940Z,20.69
2023-03-18T16:36:57.251Z,20.71
2023-03-18T16:39:36.261Z,20.63
2023-03-18T16:42:06.857Z,20.70
2023-03-18T16:44:35.849Z,20.36
2023-03-18T16:47:03.626Z,20.57
2023-03-18T16:49:34.656Z,20.60
2023-03-18T16:52:06.983Z,20.56
2023-03-18T16:54:34.920Z,20.39
2023-03-18T16:57:04.717Z,20.66
2023-03-18T16:59:35.425Z,20.66
2023-03-18T17:02:17.556Z,20.40
2023-03-18T17:04:45.286Z,20.36
2023-03-18T17:07:14.201Z,20.38
2023-03-18T17:09:42.180Z,20.40
2023-03-18T17:12:12.223Z,20.51
2023-03-18T17:14:51.986Z,20.64
2023-03-18T17:17:28.122Z,20.64
2023-03-18T17:19:57.316Z,20.63
2023-03-18T17:22:28.426Z,19.41
2023-03-18T17:24:56.983Z,20.63
2023-03-18T17:27:40.283Z,20.59
2023-03-18T17:30:36.391Z,20.54
2023-03-18T17:33:16.865Z,20.53
2023-03-18T17:35:44.910Z,20.37
2023-03-18T17:38:15.125Z,20.35
2023-03-18T17:40:43.626Z,20.55
2023-03-18T17:43:19.422Z,19.78
2023-03-18T17:45:47.969Z,20.11
2023-03-18T17:48:20.868Z,20.52
2023-03-18T17:50:51.798Z,20.11
2023-03-18T17:53:44.291Z,20.49
2023-03-18T17:56:14.966Z,20.46
2023-03-18T17:59:02.033Z,20.49
2023-03-18T18:01:30.422Z,20.39
2023-03-18T18:04:00.021Z,20.10
2023-03-18T18:06:29.823Z,20.19
2023-03-18T18:09:02.570Z,20.47
2023-03-18T18:11:32.862Z,20.13
2023-03-18T18:14:22.039Z,20.13
2023-03-18T18:16:50.771Z,20.37
2023-03-18T18:19:19.799Z,20.26
2023-03-18T18:21:49.520Z,20.35
2023-03-18T18:24:28.010Z,20.14
2023-03-18T18:26:56.926Z,20.26
2023-03-18T18:29:28.476Z,20.08
2023-03-18T18:31:59.446Z,20.38
2023-03-18T18:34:27.590Z,19.79
2023-03-18T18:36:55.477Z,20.56
2023-03-18T18:39:23.369Z,20.56
2023-03-18T18:41:51.512Z,20.45
2023-03-18T18:44:19.700Z,20.72
2023-03-18T18:46:47.810Z,20.40
2023-03-18T18:49:22.825Z,20.74
2023-03-18T18:51:55.553Z,20.77
2023-03-18T18:54:24.664Z,20.76
2023-03-18T18:56:53.409Z,20.77
2023-03-18T18:59:23.267Z,20.78
2023-03-18T19:01:52.376Z,20.68
2023-03-18T19:04:21.998Z,20.77
2023-03-18T19:06:51.896Z,20.58
2023-03-18T19:09:24.016Z,20.64
2023-03-18T19:11:53.473Z,20.42
2023-03-18T19:14:27.497Z,20.69
2023-03-18T19:17:00.788Z,20.68
2023-03-18T19:19:31.313Z,20.12
2023-03-18T19:21:59.179Z,20.59
2023-03-18T19:24:32.747Z,20.28
2023-03-18T19:27:04.357Z,20.57
2023-03-18T19:29:35.480Z,20.54
2023-03-18T19:32:03.512Z,20.58
2023-03-18T19:34:32.610Z,20.48
2023-03-18T19:37:03.216Z,20.48
2023-03-18T19:39:30.949Z,20.49
2023-03-18T19:41:58.951Z,20.53
2023-03-18T19:44:27.335Z,20.81
2023-03-18T19:46:59.510Z,20.85
2023-03-18T19:49:39.392Z,20.85
2023-03-18T19:52:28.062Z,20.83
2023-03-18T19:54:57.811Z,20.79
2023-03-18T19:57:29.008Z,20.60
2023-03-18T19:59:58.630Z,20.77
2023-03-18T20:02:27.980Z,20.78
2023-03-18T20:04:58.550Z,20.51
2023-03-18T20:07:29.781Z,20.44
2023-03-18T20:09:58.960Z,20.56
2023-03-18T20:12:44.677Z,20.74
2023-03-18T20:15:22.081Z,20.53
2023-03-18T20:17:52.412Z,20.34
2023-03-18T20:20:24.076Z,20.17
2023-03-18T20:22:56.711Z,20.61
2023-03-18T20:25:36.262Z,20.67
2023-03-18T20:28:06.497Z,20.60
2023-03-18T20:30:39.212Z,20.40
2023-03-18T20:33:08.078Z,20.20
2023-03-18T20:35:39.359Z,20.51
2023-03-18T20:38:33.516Z,20.37
2023-03-18T20:41:02.018Z,20.53
2023-03-18T20:43:31.042Z,20.47
2023-03-18T20:46:01.108Z,20.47
2023-03-18T20:48:29.008Z,20.50
2023-03-18T20:50:58.206Z,20.15
2023-03-18T20:53:31.838Z,20.63
2023-03-18T20:56:02.236Z,20.46
2023-03-18T20:58:31.471Z,20.62
2023-03-18T21:00:59.654Z,20.30
2023-03-18T21:03:34.776Z,20.57
2023-03-18T21:06:04.282Z,20.58
2023-03-18T21:08:33.922Z,20.46
2023-03-18T21:11:02.855Z,20.50
2023-03-18T21:13:34.109Z,20.50
2023-03-18T21:16:04.354Z,20.62
2023-03-18T21:18:32.208Z,20.62
2023-03-18T21:21:01.322Z,20.60
2023-03-18T21:23:32.051Z,20.39
2023-03-18T21:26:01.567Z,20.57
2023-03-18T21:28:31.068Z,20.09
2023-03-18T21:30:59.598Z,20.31
2023-03-18T21:33:31.385Z,20.16
2023-03-18T21:35:59.957Z,20.40
2023-03-18T21:38:30.720Z,20.45
2023-03-18T21:41:01.027Z,20.20
2023-03-18T21:43:34.046Z,20.08
2023-03-18T21:46:03.489Z,20.43
2023-03-18T21:48:31.934Z,20.29
2023-03-18T21:51:00.134Z,20.28
2023-03-18T21:53:28.977Z,20.44
2023-03-18T21:55:56.786Z,20.35
2023-03-18T21:58:27.761Z,20.45
2023-03-18T22:00:58.412Z,20.40
2023-03-18T22:03:29.863Z,20.36
2023-03-18T22:05:58.005Z,20.46
2023-03-18T22:08:26.601Z,20.24
2023-03-18T22:10:54.475Z,20.04
2023-03-18T22:13:24.198Z,20.45
2023-03-18T22:15:54.334Z,20.33
2023-03-18T22:18:22.873Z,20.28
2023-03-18T22:20:51.753Z,20.45
2023-03-18T22:23:28.616Z,20.45
2023-03-18T22:25:57.937Z,20.45
2023-03-18T22:28:28.303Z,20.23
2023-03-18T22:30:57.108Z,20.43
2023-03-18T22:33:28.957Z,20.39
2023-03-18T22:35:57.348Z,20.37
2023-03-18T22:38:26.862Z,20.20
2023-03-18T22:40:57.176Z,20.32
2023-03-18T22:43:32.222Z,20.32
2023-03-18T22:46:03.812Z,20.29
2023-03-18T22:48:31.782Z,20.26
2023-03-18T22:51:01.273Z,20.26
2023-03-18T22:53:42.844Z,20.05
2023-03-18T22:56:14.493Z,20.21
2023-03-18T22:58:42.664Z,20.14
2023-03-18T23:01:16.577Z,20.24
2023-03-18T23:03:44.950Z,20.14
2023-03-18T23:06:17.000Z,20.11
2023-03-18T23:08:45.810Z,19.93
2023-03-18T23:11:14.193Z,20.27
2023-03-18T23:13:48.136Z,19.95
2023-03-18T23:16:18.308Z,20.28
2023-03-18T23:18:46.617Z,20.09
2023-03-18T23:21:22.115Z,19.84
2023-03-18T23:23:50.716Z,19.99
2023-03-18T23:26:20.994Z,20.09
2023-03-18T23:28:49.717Z,19.65
2023-03-18T23:31:17.861Z,20.20
2023-03-18T23:33:45.855Z,20.11
2023-03-18T23:36:14.146Z,20.17
2023-03-18T23:38:42.753Z,19.95
2023-03-18T23:41:11.097Z,20.24
2023-03-18T23:43:39.038Z,20.16
2023-03-18T23:46:07.622Z,20.21
2023-03-18T23:48:36.008Z,20.05
2023-03-18T23:51:04.038Z,20.19
2023-03-18T23:53:32.272Z,19.76
2023-03-18T23:56:00.056Z,20.16
2023-03-18T23:58:27.923Z,20.25
